sensor_id;sensor_type;location;lat;lon;timestamp;pressure;altitude;pressure_sealevel;temperature
68911;BMP180;55953;51.650;-0.522;2023-07-16T00:01:28;99487.80;;;16.00
68911;BMP180;55953;51.650;-0.522;2023-07-16T00:03:56;99490.80;;;16.00
68911;BMP180;55953;51.650;-0.522;2023-07-16T00:06:24;99491.40;;;15.94
68911;BMP180;55953;51.650;-0.522;2023-07-16T00:08:52;99496.80;;;15.90
68911;BMP180;55953;51.650;-0.522;2023-07-16T00:11:19;99490.60;;;15.92
68911;BMP180;55953;51.650;-0.522;2023-07-16T00:13:47;99493.00;;;15.94
68911;BMP180;55953;51.650;-0.522;2023-07-16T00:16:16;99496.60;;;15.98
68911;BMP180;55953;51.650;-0.522;2023-07-16T00:18:45;99503.60;;;16.00
68911;BMP180;55953;51.650;-0.522;2023-07-16T00:21:13;99509.60;;;16.00
68911;BMP180;55953;51.650;-0.522;2023-07-16T00:23:41;99510.60;;;15.98
68911;BMP180;55953;51.650;-0.522;2023-07-16T00:26:08;99514.00;;;15.96
68911;BMP180;55953;51.650;-0.522;2023-07-16T00:28:36;99513.60;;;16.00
68911;BMP180;55953;51.650;-0.522;2023-07-16T00:31:04;99517.80;;;16.00
68911;BMP180;55953;51.650;-0.522;2023-07-16T00:33:32;99524.80;;;16.00
68911;BMP180;55953;51.650;-0.522;2023-07-16T00:36:01;99519.00;;;16.00
68911;BMP180;55953;51.650;-0.522;2023-07-16T00:38:29;99517.00;;;16.00
68911;BMP180;55953;51.650;-0.522;2023-07-16T00:40:58;99516.00;;;16.00
68911;BMP180;55953;51.650;-0.522;2023-07-16T00:43:26;99522.40;;;16.00
68911;BMP180;55953;51.650;-0.522;2023-07-16T00:45:54;99524.20;;;15.90
68911;BMP180;55953;51.650;-0.522;2023-07-16T00:48:22;99523.60;;;15.90
68911;BMP180;55953;51.650;-0.522;2023-07-16T00:50:52;99528.80;;;15.90
68911;BMP180;55953;51.650;-0.522;2023-07-16T00:53:21;99532.20;;;15.90
68911;BMP180;55953;51.650;-0.522;2023-07-16T00:55:49;99531.00;;;15.90
68911;BMP180;55953;51.650;-0.522;2023-07-16T00:58:17;99532.60;;;15.90
68911;BMP180;55953;51.650;-0.522;2023-07-16T01:00:45;99528.20;;;15.90
68911;BMP180;55953;51.650;-0.522;2023-07-16T01:03:14;99528.80;;;15.90
68911;BMP180;55953;51.650;-0.522;2023-07-16T01:08:56;99533.20;;;15.90
68911;BMP180;55953;51.650;-0.522;2023-07-16T01:11:26;99534.20;;;15.90
68911;BMP180;55953;51.650;-0.522;2023-07-16T01:13:56;99535.80;;;16.00
68911;BMP180;55953;51.650;-0.522;2023-07-16T01:16:25;99545.20;;;16.00
68911;BMP180;55953;51.650;-0.522;2023-07-16T01:18:53;99547.60;;;16.00
68911;BMP180;55953;51.650;-0.522;2023-07-16T01:21:23;99558.20;;;15.92
68911;BMP180;55953;51.650;-0.522;2023-07-16T01:30:01;99557.80;;;15.90
68911;BMP180;55953;51.650;-0.522;2023-07-16T01:32:31;99563.60;;;15.90
68911;BMP180;55953;51.650;-0.522;2023-07-16T01:35:03;99571.40;;;15.90
68911;BMP180;55953;51.650;-0.522;2023-07-16T01:37:32;99578.00;;;15.90
68911;BMP180;55953;51.650;-0.522;2023-07-16T01:40:02;99581.00;;;15.90
68911;BMP180;55953;51.650;-0.522;2023-07-16T01:42:31;99581.40;;;15.90
68911;BMP180;55953;51.650;-0.522;2023-07-16T01:44:58;99581.80;;;15.90
68911;BMP180;55953;51.650;-0.522;2023-07-16T01:50:16;99575.60;;;15.90
68911;BMP180;55953;51.650;-0.522;2023-07-16T01:52:43;99575.00;;;15.90
68911;BMP180;55953;51.650;-0.522;2023-07-16T01:55:11;99573.40;;;15.86
68911;BMP180;55953;51.650;-0.522;2023-07-16T01:57:39;99576.20;;;15.80
68911;BMP180;55953;51.650;-0.522;2023-07-16T02:00:07;99581.20;;;15.80
68911;BMP180;55953;51.650;-0.522;2023-07-16T02:02:46;99583.80;;;15.80
68911;BMP180;55953;51.650;-0.522;2023-07-16T02:05:15;99586.40;;;15.70
68911;BMP180;55953;51.650;-0.522;2023-07-16T02:07:43;99597.00;;;15.70
68911;BMP180;55953;51.650;-0.522;2023-07-16T02:10:10;99593.00;;;15.70
68911;BMP180;55953;51.650;-0.522;2023-07-16T02:12:38;99600.60;;;15.70
68911;BMP180;55953;51.650;-0.522;2023-07-16T02:15:06;99602.80;;;15.70
68911;BMP180;55953;51.650;-0.522;2023-07-16T02:17:35;99600.20;;;15.70
68911;BMP180;55953;51.650;-0.522;2023-07-16T02:20:04;99607.40;;;15.70
68911;BMP180;55953;51.650;-0.522;2023-07-16T02:22:35;99603.80;;;15.70
68911;BMP180;55953;51.650;-0.522;2023-07-16T02:25:04;99603.60;;;15.70
68911;BMP180;55953;51.650;-0.522;2023-07-16T02:27:32;99611.20;;;15.70
68911;BMP180;55953;51.650;-0.522;2023-07-16T02:30:00;99607.00;;;15.70
68911;BMP180;55953;51.650;-0.522;2023-07-16T02:32:28;99611.40;;;15.70
68911;BMP180;55953;51.650;-0.522;2023-07-16T02:34:56;99609.80;;;15.70
68911;BMP180;55953;51.650;-0.522;2023-07-16T02:37:24;99617.80;;;15.70
68911;BMP180;55953;51.650;-0.522;2023-07-16T02:39:51;99609.80;;;15.70
68911;BMP180;55953;51.650;-0.522;2023-07-16T02:42:19;99621.80;;;15.60
68911;BMP180;55953;51.650;-0.522;2023-07-16T02:44:47;99625.20;;;15.60
68911;BMP180;55953;51.650;-0.522;2023-07-16T02:47:15;99622.00;;;15.60
68911;BMP180;55953;51.650;-0.522;2023-07-16T02:49:42;99629.40;;;15.60
68911;BMP180;55953;51.650;-0.522;2023-07-16T02:52:10;99633.80;;;15.60
68911;BMP180;55953;51.650;-0.522;2023-07-16T02:54:38;99631.20;;;15.54
68911;BMP180;55953;51.650;-0.522;2023-07-16T02:57:06;99635.80;;;15.50
68911;BMP180;55953;51.650;-0.522;2023-07-16T02:59:34;99639.40;;;15.50
68911;BMP180;55953;51.650;-0.522;2023-07-16T03:02:01;99639.60;;;15.50
68911;BMP180;55953;51.650;-0.522;2023-07-16T03:04:29;99641.80;;;15.50
68911;BMP180;55953;51.650;-0.522;2023-07-16T03:06:57;99645.00;;;15.50
68911;BMP180;55953;51.650;-0.522;2023-07-16T03:09:25;99652.80;;;15.50
68911;BMP180;55953;51.650;-0.522;2023-07-16T03:11:53;99659.80;;;15.50
68911;BMP180;55953;51.650;-0.522;2023-07-16T03:14:21;99660.40;;;15.50
68911;BMP180;55953;51.650;-0.522;2023-07-16T03:16:49;99658.20;;;15.50
68911;BMP180;55953;51.650;-0.522;2023-07-16T03:19:17;99658.60;;;15.50
68911;BMP180;55953;51.650;-0.522;2023-07-16T03:21:44;99667.20;;;15.50
68911;BMP180;55953;51.650;-0.522;2023-07-16T03:24:13;99672.00;;;15.50
68911;BMP180;55953;51.650;-0.522;2023-07-16T03:26:41;99672.60;;;15.50
68911;BMP180;55953;51.650;-0.522;2023-07-16T03:29:09;99677.60;;;15.40
68911;BMP180;55953;51.650;-0.522;2023-07-16T03:31:37;99681.60;;;15.40
68911;BMP180;55953;51.650;-0.522;2023-07-16T03:34:06;99685.40;;;15.40
68911;BMP180;55953;51.650;-0.522;2023-07-16T03:36:33;99682.60;;;15.40
68911;BMP180;55953;51.650;-0.522;2023-07-16T03:39:04;99684.60;;;15.40
68911;BMP180;55953;51.650;-0.522;2023-07-16T03:41:34;99690.80;;;15.38
68911;BMP180;55953;51.650;-0.522;2023-07-16T03:44:02;99697.60;;;15.30
68911;BMP180;55953;51.650;-0.522;2023-07-16T03:46:32;99705.60;;;15.30
68911;BMP180;55953;51.650;-0.522;2023-07-16T03:49:00;99707.20;;;15.30
68911;BMP180;55953;51.650;-0.522;2023-07-16T03:51:28;99712.40;;;15.30
68911;BMP180;55953;51.650;-0.522;2023-07-16T03:53:56;99716.80;;;15.30
68911;BMP180;55953;51.650;-0.522;2023-07-16T03:56:24;99727.20;;;15.30
68911;BMP180;55953;51.650;-0.522;2023-07-16T03:58:51;99722.80;;;15.28
68911;BMP180;55953;51.650;-0.522;2023-07-16T04:01:20;99729.20;;;15.30
68911;BMP180;55953;51.650;-0.522;2023-07-16T04:03:48;99732.60;;;15.20
68911;BMP180;55953;51.650;-0.522;2023-07-16T04:06:15;99741.00;;;15.20
68911;BMP180;55953;51.650;-0.522;2023-07-16T04:08:44;99745.80;;;15.20
68911;BMP180;55953;51.650;-0.522;2023-07-16T04:11:12;99745.20;;;15.20
68911;BMP180;55953;51.650;-0.522;2023-07-16T04:13:40;99753.80;;;15.20
68911;BMP180;55953;51.650;-0.522;2023-07-16T04:16:07;99755.60;;;15.12
68911;BMP180;55953;51.650;-0.522;2023-07-16T04:18:35;99753.80;;;15.16
68911;BMP180;55953;51.650;-0.522;2023-07-16T04:21:03;99757.80;;;15.12
68911;BMP180;55953;51.650;-0.522;2023-07-16T04:23:31;99758.20;;;15.10
68911;BMP180;55953;51.650;-0.522;2023-07-16T04:25:59;99763.00;;;15.08
68911;BMP180;55953;51.650;-0.522;2023-07-16T04:28:26;99764.00;;;15.00
68911;BMP180;55953;51.650;-0.522;2023-07-16T04:30:54;99766.00;;;15.00
68911;BMP180;55953;51.650;-0.522;2023-07-16T04:33:22;99766.80;;;15.00
68911;BMP180;55953;51.650;-0.522;2023-07-16T04:35:50;99776.40;;;15.00
68911;BMP180;55953;51.650;-0.522;2023-07-16T04:38:18;99772.40;;;14.90
68911;BMP180;55953;51.650;-0.522;2023-07-16T04:40:46;99777.60;;;14.90
68911;BMP180;55953;51.650;-0.522;2023-07-16T04:43:14;99776.00;;;14.90
68911;BMP180;55953;51.650;-0.522;2023-07-16T04:45:44;99783.00;;;14.90
68911;BMP180;55953;51.650;-0.522;2023-07-16T04:48:14;99788.80;;;14.90
68911;BMP180;55953;51.650;-0.522;2023-07-16T04:50:42;99783.60;;;14.88
68911;BMP180;55953;51.650;-0.522;2023-07-16T04:53:09;99784.40;;;14.80
68911;BMP180;55953;51.650;-0.522;2023-07-16T04:55:38;99785.20;;;14.80
68911;BMP180;55953;51.650;-0.522;2023-07-16T04:58:06;99787.20;;;14.80
68911;BMP180;55953;51.650;-0.522;2023-07-16T05:00:34;99789.80;;;14.80
68911;BMP180;55953;51.650;-0.522;2023-07-16T05:03:02;99794.80;;;14.74
68911;BMP180;55953;51.650;-0.522;2023-07-16T05:05:30;99801.20;;;14.70
68911;BMP180;55953;51.650;-0.522;2023-07-16T05:07:58;99808.20;;;14.64
68911;BMP180;55953;51.650;-0.522;2023-07-16T05:10:27;99808.00;;;14.60
68911;BMP180;55953;51.650;-0.522;2023-07-16T05:12:55;99805.60;;;14.60
68911;BMP180;55953;51.650;-0.522;2023-07-16T05:15:23;99814.80;;;14.50
68911;BMP180;55953;51.650;-0.522;2023-07-16T05:17:51;99822.40;;;14.50
68911;BMP180;55953;51.650;-0.522;2023-07-16T05:20:18;99827.60;;;14.56
68911;BMP180;55953;51.650;-0.522;2023-07-16T05:22:47;99828.80;;;14.54
68911;BMP180;55953;51.650;-0.522;2023-07-16T05:25:15;99832.40;;;14.50
68911;BMP180;55953;51.650;-0.522;2023-07-16T05:27:43;99834.80;;;14.60
68911;BMP180;55953;51.650;-0.522;2023-07-16T05:30:11;99833.40;;;14.60
68911;BMP180;55953;51.650;-0.522;2023-07-16T05:32:40;99836.20;;;14.60
68911;BMP180;55953;51.650;-0.522;2023-07-16T05:35:08;99829.60;;;14.60
68911;BMP180;55953;51.650;-0.522;2023-07-16T05:37:36;99836.80;;;14.60
68911;BMP180;55953;51.650;-0.522;2023-07-16T05:40:05;99840.40;;;14.60
68911;BMP180;55953;51.650;-0.522;2023-07-16T05:42:36;99842.60;;;14.60
68911;BMP180;55953;51.650;-0.522;2023-07-16T05:45:05;99845.00;;;14.70
68911;BMP180;55953;51.650;-0.522;2023-07-16T05:47:33;99849.80;;;14.78
68911;BMP180;55953;51.650;-0.522;2023-07-16T05:50:01;99848.60;;;14.80
68911;BMP180;55953;51.650;-0.522;2023-07-16T05:52:30;99854.20;;;14.86
68911;BMP180;55953;51.650;-0.522;2023-07-16T05:54:58;99855.60;;;14.88
68911;BMP180;55953;51.650;-0.522;2023-07-16T05:57:25;99856.20;;;14.90
68911;BMP180;55953;51.650;-0.522;2023-07-16T05:59:53;99860.00;;;14.80
68911;BMP180;55953;51.650;-0.522;2023-07-16T06:02:23;99859.40;;;14.90
68911;BMP180;55953;51.650;-0.522;2023-07-16T06:04:51;99864.80;;;14.98
68911;BMP180;55953;51.650;-0.522;2023-07-16T06:07:18;99868.80;;;15.00
68911;BMP180;55953;51.650;-0.522;2023-07-16T06:09:46;99881.80;;;15.10
68911;BMP180;55953;51.650;-0.522;2023-07-16T06:12:14;99876.20;;;15.24
68911;BMP180;55953;51.650;-0.522;2023-07-16T06:14:42;99875.60;;;15.30
68911;BMP180;55953;51.650;-0.522;2023-07-16T06:17:09;99880.60;;;15.40
68911;BMP180;55953;51.650;-0.522;2023-07-16T06:19:37;99883.60;;;15.50
68911;BMP180;55953;51.650;-0.522;2023-07-16T06:22:05;99888.20;;;15.60
68911;BMP180;55953;51.650;-0.522;2023-07-16T06:24:33;99885.60;;;15.64
68911;BMP180;55953;51.650;-0.522;2023-07-16T06:27:01;99888.80;;;15.80
68911;BMP180;55953;51.650;-0.522;2023-07-16T06:29:28;99899.20;;;15.90
68911;BMP180;55953;51.650;-0.522;2023-07-16T06:31:58;99898.60;;;16.00
68911;BMP180;55953;51.650;-0.522;2023-07-16T06:34:26;99902.40;;;16.10
68911;BMP180;55953;51.650;-0.522;2023-07-16T06:36:54;99905.40;;;16.20
68911;BMP180;55953;51.650;-0.522;2023-07-16T06:39:22;99912.80;;;16.32
68911;BMP180;55953;51.650;-0.522;2023-07-16T06:41:49;99916.60;;;16.30
68911;BMP180;55953;51.650;-0.522;2023-07-16T06:44:17;99916.00;;;16.38
68911;BMP180;55953;51.650;-0.522;2023-07-16T06:46:45;99916.20;;;16.40
68911;BMP180;55953;51.650;-0.522;2023-07-16T06:49:13;99917.80;;;16.40
68911;BMP180;55953;51.650;-0.522;2023-07-16T06:51:40;99922.60;;;16.40
68911;BMP180;55953;51.650;-0.522;2023-07-16T06:54:08;99925.00;;;16.52
68911;BMP180;55953;51.650;-0.522;2023-07-16T06:56:36;99929.40;;;16.70
68911;BMP180;55953;51.650;-0.522;2023-07-16T06:59:04;99927.20;;;16.70
68911;BMP180;55953;51.650;-0.522;2023-07-16T07:01:32;99924.80;;;16.68
68911;BMP180;55953;51.650;-0.522;2023-07-16T07:04:00;99923.40;;;16.68
68911;BMP180;55953;51.650;-0.522;2023-07-16T07:06:28;99930.80;;;16.70
68911;BMP180;55953;51.650;-0.522;2023-07-16T07:08:56;99932.20;;;16.70
68911;BMP180;55953;51.650;-0.522;2023-07-16T07:11:24;99934.60;;;16.70
68911;BMP180;55953;51.650;-0.522;2023-07-16T07:13:52;99938.80;;;16.70
68911;BMP180;55953;51.650;-0.522;2023-07-16T07:16:20;99940.60;;;16.70
68911;BMP180;55953;51.650;-0.522;2023-07-16T07:18:48;99953.40;;;16.80
68911;BMP180;55953;51.650;-0.522;2023-07-16T07:21:16;99959.80;;;16.80
68911;BMP180;55953;51.650;-0.522;2023-07-16T07:23:44;99962.60;;;16.82
68911;BMP180;55953;51.650;-0.522;2023-07-16T07:26:12;99965.00;;;16.90
68911;BMP180;55953;51.650;-0.522;2023-07-16T07:28:40;99962.60;;;17.00
68911;BMP180;55953;51.650;-0.522;2023-07-16T07:31:08;99965.20;;;17.10
68911;BMP180;55953;51.650;-0.522;2023-07-16T07:33:36;99971.60;;;17.36
68911;BMP180;55953;51.650;-0.522;2023-07-16T07:36:04;99973.60;;;17.50
68911;BMP180;55953;51.650;-0.522;2023-07-16T07:38:32;99979.20;;;17.60
68911;BMP180;55953;51.650;-0.522;2023-07-16T07:40:59;99982.40;;;17.60
68911;BMP180;55953;51.650;-0.522;2023-07-16T07:43:27;99992.00;;;17.56
68911;BMP180;55953;51.650;-0.522;2023-07-16T07:45:55;99991.20;;;17.60
68911;BMP180;55953;51.650;-0.522;2023-07-16T07:48:23;99998.40;;;17.60
68911;BMP180;55953;51.650;-0.522;2023-07-16T07:50:51;99988.60;;;17.60
68911;BMP180;55953;51.650;-0.522;2023-07-16T07:53:20;99993.20;;;17.70
68911;BMP180;55953;51.650;-0.522;2023-07-16T07:55:48;99990.20;;;17.80
68911;BMP180;55953;51.650;-0.522;2023-07-16T07:58:16;99994.40;;;17.78
68911;BMP180;55953;51.650;-0.522;2023-07-16T08:00:43;99997.80;;;17.80
68911;BMP180;55953;51.650;-0.522;2023-07-16T08:03:11;99993.80;;;18.00
68911;BMP180;55953;51.650;-0.522;2023-07-16T08:05:39;99992.60;;;18.00
68911;BMP180;55953;51.650;-0.522;2023-07-16T08:08:07;100000.80;;;18.10
68911;BMP180;55953;51.650;-0.522;2023-07-16T08:10:35;99994.60;;;18.20
68911;BMP180;55953;51.650;-0.522;2023-07-16T08:13:02;99991.00;;;18.28
68911;BMP180;55953;51.650;-0.522;2023-07-16T08:15:30;99999.20;;;18.40
68911;BMP180;55953;51.650;-0.522;2023-07-16T08:17:58;100007.00;;;18.60
68911;BMP180;55953;51.650;-0.522;2023-07-16T08:20:27;100011.40;;;18.60
68911;BMP180;55953;51.650;-0.522;2023-07-16T08:22:55;100013.40;;;18.72
68911;BMP180;55953;51.650;-0.522;2023-07-16T08:25:23;100013.20;;;19.04
68911;BMP180;55953;51.650;-0.522;2023-07-16T08:27:51;100017.20;;;19.30
68911;BMP180;55953;51.650;-0.522;2023-07-16T08:30:19;100016.40;;;19.40
68911;BMP180;55953;51.650;-0.522;2023-07-16T08:32:47;100015.20;;;19.22
68911;BMP180;55953;51.650;-0.522;2023-07-16T08:35:16;100022.00;;;19.16
68911;BMP180;55953;51.650;-0.522;2023-07-16T08:37:44;100020.40;;;19.10
68911;BMP180;55953;51.650;-0.522;2023-07-16T08:40:12;100017.60;;;19.20
68911;BMP180;55953;51.650;-0.522;2023-07-16T08:42:44;100024.80;;;19.30
68911;BMP180;55953;51.650;-0.522;2023-07-16T08:45:15;100026.20;;;19.40
68911;BMP180;55953;51.650;-0.522;2023-07-16T08:47:43;100022.40;;;19.46
68911;BMP180;55953;51.650;-0.522;2023-07-16T08:50:13;100031.40;;;19.40
68911;BMP180;55953;51.650;-0.522;2023-07-16T08:52:40;100032.20;;;19.30
68911;BMP180;55953;51.650;-0.522;2023-07-16T08:55:08;100041.00;;;19.28
68911;BMP180;55953;51.650;-0.522;2023-07-16T08:57:36;100040.60;;;19.32
68911;BMP180;55953;51.650;-0.522;2023-07-16T09:00:06;100045.00;;;19.50
68911;BMP180;55953;51.650;-0.522;2023-07-16T09:02:35;100044.60;;;19.40
68911;BMP180;55953;51.650;-0.522;2023-07-16T09:05:04;100050.00;;;19.50
68911;BMP180;55953;51.650;-0.522;2023-07-16T09:07:32;100047.20;;;19.60
68911;BMP180;55953;51.650;-0.522;2023-07-16T09:10:01;100051.20;;;19.60
68911;BMP180;55953;51.650;-0.522;2023-07-16T09:12:28;100046.40;;;19.66
68911;BMP180;55953;51.650;-0.522;2023-07-16T09:14:57;100051.60;;;19.70
68911;BMP180;55953;51.650;-0.522;2023-07-16T09:17:25;100054.40;;;19.80
68911;BMP180;55953;51.650;-0.522;2023-07-16T09:19:53;100057.20;;;19.92
68911;BMP180;55953;51.650;-0.522;2023-07-16T09:22:22;100058.40;;;19.90
68911;BMP180;55953;51.650;-0.522;2023-07-16T09:24:50;100064.00;;;19.90
68911;BMP180;55953;51.650;-0.522;2023-07-16T09:27:17;100064.00;;;19.80
68911;BMP180;55953;51.650;-0.522;2023-07-16T09:29:46;100056.60;;;19.92
68911;BMP180;55953;51.650;-0.522;2023-07-16T09:32:16;100061.80;;;20.00
68911;BMP180;55953;51.650;-0.522;2023-07-16T09:34:44;100062.20;;;20.10
68911;BMP180;55953;51.650;-0.522;2023-07-16T09:37:12;100058.60;;;20.18
68911;BMP180;55953;51.650;-0.522;2023-07-16T09:39:42;100057.60;;;20.20
68911;BMP180;55953;51.650;-0.522;2023-07-16T09:42:10;100058.60;;;20.40
68911;BMP180;55953;51.650;-0.522;2023-07-16T09:44:39;100065.60;;;20.50
68911;BMP180;55953;51.650;-0.522;2023-07-16T09:47:09;100056.60;;;20.50
68911;BMP180;55953;51.650;-0.522;2023-07-16T09:49:36;100060.20;;;20.60
68911;BMP180;55953;51.650;-0.522;2023-07-16T09:52:06;100055.40;;;20.76
68911;BMP180;55953;51.650;-0.522;2023-07-16T09:54:37;100058.60;;;20.92
68911;BMP180;55953;51.650;-0.522;2023-07-16T09:57:08;100064.60;;;20.90
68911;BMP180;55953;51.650;-0.522;2023-07-16T09:59:36;100060.60;;;20.90
68911;BMP180;55953;51.650;-0.522;2023-07-16T10:02:06;100068.40;;;20.90
68911;BMP180;55953;51.650;-0.522;2023-07-16T10:04:39;100074.40;;;20.80
68911;BMP180;55953;51.650;-0.522;2023-07-16T10:07:24;100064.20;;;20.70
68911;BMP180;55953;51.650;-0.522;2023-07-16T10:09:56;100066.60;;;20.60
68911;BMP180;55953;51.650;-0.522;2023-07-16T10:12:26;100069.40;;;20.60
68911;BMP180;55953;51.650;-0.522;2023-07-16T10:14:56;100083.20;;;20.60
68911;BMP180;55953;51.650;-0.522;2023-07-16T10:17:31;100083.80;;;20.76
68911;BMP180;55953;51.650;-0.522;2023-07-16T10:20:06;100083.20;;;20.70
68911;BMP180;55953;51.650;-0.522;2023-07-16T10:22:45;100086.00;;;20.60
68911;BMP180;55953;51.650;-0.522;2023-07-16T10:27:46;100082.60;;;20.80
68911;BMP180;55953;51.650;-0.522;2023-07-16T10:30:15;100086.00;;;20.90
68911;BMP180;55953;51.650;-0.522;2023-07-16T10:32:44;100089.20;;;20.94
68911;BMP180;55953;51.650;-0.522;2023-07-16T10:35:14;100075.80;;;21.00
68911;BMP180;55953;51.650;-0.522;2023-07-16T10:37:42;100088.20;;;21.00
68911;BMP180;55953;51.650;-0.522;2023-07-16T10:40:14;100081.40;;;21.10
68911;BMP180;55953;51.650;-0.522;2023-07-16T10:42:43;100088.20;;;21.20
68911;BMP180;55953;51.650;-0.522;2023-07-16T10:45:14;100084.60;;;21.30
68911;BMP180;55953;51.650;-0.522;2023-07-16T10:47:54;100090.40;;;21.30
68911;BMP180;55953;51.650;-0.522;2023-07-16T10:50:23;100096.80;;;21.20
68911;BMP180;55953;51.650;-0.522;2023-07-16T10:52:55;100095.60;;;21.32
68911;BMP180;55953;51.650;-0.522;2023-07-16T10:55:26;100100.40;;;21.38
68911;BMP180;55953;51.650;-0.522;2023-07-16T10:57:56;100099.80;;;21.20
68911;BMP180;55953;51.650;-0.522;2023-07-16T11:00:24;100085.40;;;21.10
68911;BMP180;55953;51.650;-0.522;2023-07-16T11:02:52;100096.60;;;21.10
68911;BMP180;55953;51.650;-0.522;2023-07-16T11:05:20;100103.60;;;21.26
68911;BMP180;55953;51.650;-0.522;2023-07-16T11:07:49;100101.00;;;21.20
68911;BMP180;55953;51.650;-0.522;2023-07-16T11:10:24;100095.00;;;21.30
68911;BMP180;55953;51.650;-0.522;2023-07-16T11:12:53;100103.80;;;21.30
68911;BMP180;55953;51.650;-0.522;2023-07-16T11:15:34;100097.60;;;21.52
68911;BMP180;55953;51.650;-0.522;2023-07-16T11:18:02;100095.20;;;21.84
68911;BMP180;55953;51.650;-0.522;2023-07-16T11:20:31;100101.80;;;22.00
68911;BMP180;55953;51.650;-0.522;2023-07-16T11:22:59;100105.00;;;22.16
68911;BMP180;55953;51.650;-0.522;2023-07-16T11:25:29;100109.80;;;22.38
68911;BMP180;55953;51.650;-0.522;2023-07-16T11:27:57;100102.40;;;22.56
68911;BMP180;55953;51.650;-0.522;2023-07-16T11:30:25;100106.00;;;22.80
68911;BMP180;55953;51.650;-0.522;2023-07-16T11:32:58;100098.60;;;22.76
68911;BMP180;55953;51.650;-0.522;2023-07-16T11:35:26;100109.40;;;22.50
68911;BMP180;55953;51.650;-0.522;2023-07-16T11:37:54;100115.20;;;22.40
68911;BMP180;55953;51.650;-0.522;2023-07-16T11:40:22;100111.80;;;22.20
68911;BMP180;55953;51.650;-0.522;2023-07-16T11:42:50;100110.40;;;22.12
68911;BMP180;55953;51.650;-0.522;2023-07-16T11:45:25;100111.60;;;22.00
68911;BMP180;55953;51.650;-0.522;2023-07-16T11:47:56;100112.20;;;22.00
68911;BMP180;55953;51.650;-0.522;2023-07-16T11:50:25;100111.40;;;22.00
68911;BMP180;55953;51.650;-0.522;2023-07-16T11:52:56;100107.40;;;22.00
68911;BMP180;55953;51.650;-0.522;2023-07-16T11:55:23;100106.80;;;22.20
68911;BMP180;55953;51.650;-0.522;2023-07-16T11:57:51;100103.40;;;22.32
68911;BMP180;55953;51.650;-0.522;2023-07-16T12:00:19;100103.20;;;22.68
68911;BMP180;55953;51.650;-0.522;2023-07-16T12:02:47;100102.00;;;22.60
68911;BMP180;55953;51.650;-0.522;2023-07-16T12:05:21;100103.20;;;22.48
68911;BMP180;55953;51.650;-0.522;2023-07-16T12:08:08;100108.40;;;22.60
68911;BMP180;55953;51.650;-0.522;2023-07-16T12:10:42;100106.60;;;22.60
68911;BMP180;55953;51.650;-0.522;2023-07-16T12:13:10;100120.80;;;22.50
68911;BMP180;55953;51.650;-0.522;2023-07-16T12:15:38;100120.60;;;22.40
68911;BMP180;55953;51.650;-0.522;2023-07-16T12:18:05;100128.20;;;22.08
68911;BMP180;55953;51.650;-0.522;2023-07-16T12:20:34;100122.20;;;21.92
68911;BMP180;55953;51.650;-0.522;2023-07-16T12:23:02;100126.20;;;22.10
68911;BMP180;55953;51.650;-0.522;2023-07-16T12:25:31;100132.00;;;22.30
68911;BMP180;55953;51.650;-0.522;2023-07-16T12:28:00;100130.00;;;22.34
68911;BMP180;55953;51.650;-0.522;2023-07-16T12:30:29;100138.00;;;22.20
68911;BMP180;55953;51.650;-0.522;2023-07-16T12:32:57;100140.60;;;22.10
68911;BMP180;55953;51.650;-0.522;2023-07-16T12:35:25;100142.80;;;22.00
68911;BMP180;55953;51.650;-0.522;2023-07-16T12:37:53;100138.20;;;21.90
68911;BMP180;55953;51.650;-0.522;2023-07-16T12:40:21;100138.80;;;21.90
68911;BMP180;55953;51.650;-0.522;2023-07-16T12:42:48;100140.40;;;21.80
68911;BMP180;55953;51.650;-0.522;2023-07-16T12:45:16;100141.00;;;21.80
68911;BMP180;55953;51.650;-0.522;2023-07-16T12:47:44;100141.80;;;21.90
68911;BMP180;55953;51.650;-0.522;2023-07-16T12:50:11;100140.40;;;21.98
68911;BMP180;55953;51.650;-0.522;2023-07-16T12:52:39;100158.80;;;21.76
68911;BMP180;55953;51.650;-0.522;2023-07-16T12:55:07;100179.00;;;21.70
68911;BMP180;55953;51.650;-0.522;2023-07-16T12:57:35;100177.60;;;21.90
68911;BMP180;55953;51.650;-0.522;2023-07-16T13:00:03;100187.00;;;22.00
68911;BMP180;55953;51.650;-0.522;2023-07-16T13:02:32;100180.20;;;22.10
68911;BMP180;55953;51.650;-0.522;2023-07-16T13:05:00;100183.80;;;22.34
68911;BMP180;55953;51.650;-0.522;2023-07-16T13:07:30;100182.00;;;22.56
68911;BMP180;55953;51.650;-0.522;2023-07-16T13:09:58;100186.40;;;22.60
68911;BMP180;55953;51.650;-0.522;2023-07-16T13:12:44;100193.60;;;22.30
68911;BMP180;55953;51.650;-0.522;2023-07-16T13:15:12;100185.80;;;22.30
68911;BMP180;55953;51.650;-0.522;2023-07-16T13:17:40;100196.60;;;22.30
68911;BMP180;55953;51.650;-0.522;2023-07-16T13:20:08;100196.20;;;22.42
68911;BMP180;55953;51.650;-0.522;2023-07-16T13:22:36;100201.40;;;22.60
68911;BMP180;55953;51.650;-0.522;2023-07-16T13:25:05;100198.20;;;22.80
68911;BMP180;55953;51.650;-0.522;2023-07-16T13:27:33;100190.60;;;23.00
68911;BMP180;55953;51.650;-0.522;2023-07-16T13:30:01;100196.40;;;23.10
68911;BMP180;55953;51.650;-0.522;2023-07-16T13:32:29;100192.20;;;23.30
68911;BMP180;55953;51.650;-0.522;2023-07-16T13:34:57;100196.60;;;23.30
68911;BMP180;55953;51.650;-0.522;2023-07-16T13:37:25;100190.80;;;22.98
68911;BMP180;55953;51.650;-0.522;2023-07-16T13:39:53;100192.40;;;22.70
68911;BMP180;55953;51.650;-0.522;2023-07-16T13:42:21;100184.80;;;22.80
68911;BMP180;55953;51.650;-0.522;2023-07-16T13:44:51;100185.60;;;23.00
68911;BMP180;55953;51.650;-0.522;2023-07-16T13:47:18;100187.40;;;23.00
68911;BMP180;55953;51.650;-0.522;2023-07-16T13:49:48;100190.60;;;22.80
68911;BMP180;55953;51.650;-0.522;2023-07-16T13:52:16;100187.60;;;22.80
68911;BMP180;55953;51.650;-0.522;2023-07-16T13:54:44;100191.40;;;22.90
68911;BMP180;55953;51.650;-0.522;2023-07-16T13:57:12;100192.60;;;22.90
68911;BMP180;55953;51.650;-0.522;2023-07-16T13:59:40;100193.60;;;22.78
68911;BMP180;55953;51.650;-0.522;2023-07-16T14:02:08;100193.40;;;22.60
68911;BMP180;55953;51.650;-0.522;2023-07-16T14:04:36;100196.40;;;22.40
68911;BMP180;55953;51.650;-0.522;2023-07-16T14:07:04;100200.40;;;22.20
68911;BMP180;55953;51.650;-0.522;2023-07-16T14:09:32;100226.80;;;22.00
68911;BMP180;55953;51.650;-0.522;2023-07-16T14:12:00;100245.40;;;21.64
68911;BMP180;55953;51.650;-0.522;2023-07-16T14:14:27;100250.00;;;21.08